Time;durP1;ratioP1;P1;durP2;ratioP2;P2;SDS_P1;SDS_P2;PMS_P1;PMS_P2;Temp;Humidity;BMP_temperature;BMP_pressure;BME280_temperature;BME280_humidity;BME280_pressure;Samples;Min_cycle;Max_cycle;Signal;HPM_P1;HPM_P2
2023/05/12 00:01:02;;;;;;;8.02;5.88;;;;;;;;;;5009547;28;93718;-66
2023/05/12 00:03:28;;;;;;;9.40;6.10;;;;;;;;;;5010933;28;92429;-66
2023/05/12 00:05:55;;;;;;;10.27;6.20;;;;;;;;;;5011294;28;93494;-66
2023/05/12 00:08:21;;;;;;;11.80;6.68;;;;;;;;;;5011994;28;92604;-66
2023/05/12 00:10:48;;;;;;;10.27;6.70;;;;;;;;;;5015439;28;92514;-66
2023/05/12 00:13:15;;;;;;;8.40;6.60;;;;;;;;;;5014549;28;93096;-66
2023/05/12 00:15:41;;;;;;;11.23;6.65;;;;;;;;;;5013722;28;95630;-66
2023/05/12 00:18:08;;;;;;;10.02;6.18;;;;;;;;;;5009130;28;92557;-66
2023/05/12 00:20:34;;;;;;;7.80;5.60;;;;;;;;;;5034605;28;92373;-66
2023/05/12 00:23:00;;;;;;;8.05;6.03;;;;;;;;;;5019560;27;92697;-66
2023/05/12 00:25:27;;;;;;;7.53;5.30;;;;;;;;;;4998769;28;93165;-66
2023/05/12 00:27:53;;;;;;;6.68;5.28;;;;;;;;;;5014956;28;93607;-66
2023/05/12 00:30:19;;;;;;;10.48;5.85;;;;;;;;;;5015022;28;93053;-67
2023/05/12 00:32:46;;;;;;;9.38;5.88;;;;;;;;;;5010094;28;93264;-67
2023/05/12 00:35:13;;;;;;;7.65;5.10;;;;;;;;;;4996509;28;94350;-67
2023/05/12 00:37:39;;;;;;;7.85;6.13;;;;;;;;;;5009781;28;92541;-67
2023/05/12 00:40:06;;;;;;;8.00;4.85;;;;;;;;;;4998629;28;94872;-66
2023/05/12 00:42:33;;;;;;;7.13;5.55;;;;;;;;;;5018468;28;93950;-66
2023/05/12 00:45:00;;;;;;;11.07;6.00;;;;;;;;;;5015636;28;94273;-66
2023/05/12 00:47:26;;;;;;;8.98;5.45;;;;;;;;;;5009299;28;94319;-66
2023/05/12 00:49:53;;;;;;;12.43;5.70;;;;;;;;;;5011827;28;93403;-66
2023/05/12 00:52:19;;;;;;;9.45;5.88;;;;;;;;;;5011112;28;93216;-66
2023/05/12 00:54:46;;;;;;;7.18;5.00;;;;;;;;;;5015924;28;93889;-66
2023/05/12 00:57:13;;;;;;;6.35;5.38;;;;;;;;;;5015158;28;91788;-66
2023/05/12 00:59:39;;;;;;;5.25;4.63;;;;;;;;;;5014800;28;92505;-66
2023/05/12 01:02:06;;;;;;;6.07;4.68;;;;;;;;;;5004332;28;93445;-66
2023/05/12 01:04:32;;;;;;;5.78;4.63;;;;;;;;;;5007533;28;95362;-66
2023/05/12 01:07:04;;;;;;;6.78;5.32;;;;;;;;;;5000345;28;93877;-66
2023/05/12 01:09:30;;;;;;;6.40;5.00;;;;;;;;;;5008754;28;92566;-66
2023/05/12 01:11:57;;;;;;;6.38;5.07;;;;;;;;;;5007389;28;93278;-65
2023/05/12 01:14:23;;;;;;;8.02;5.65;;;;;;;;;;5015907;28;93488;-67
2023/05/12 01:16:50;;;;;;;6.53;5.57;;;;;;;;;;5015106;28;92728;-66
2023/05/12 01:19:35;;;;;;;6.68;5.47;;;;;;;;;;5016386;28;93168;-66
2023/05/12 01:22:02;;;;;;;6.38;5.15;;;;;;;;;;5015051;28;92420;-66
2023/05/12 01:24:29;;;;;;;6.30;5.65;;;;;;;;;;4999048;28;92465;-66
2023/05/12 01:26:56;;;;;;;5.70;4.80;;;;;;;;;;4996448;28;93436;-66
2023/05/12 01:29:22;;;;;;;7.78;5.00;;;;;;;;;;5014153;28;94852;-66
2023/05/12 01:31:49;;;;;;;6.35;5.70;;;;;;;;;;5015754;28;95469;-66
2023/05/12 01:34:17;;;;;;;6.15;4.80;;;;;;;;;;5014238;28;93698;-66
2023/05/12 01:36:43;;;;;;;7.97;4.90;;;;;;;;;;5015647;28;92667;-66
2023/05/12 01:39:10;;;;;;;5.68;4.78;;;;;;;;;;5013792;28;93128;-66
2023/05/12 01:41:37;;;;;;;6.43;4.88;;;;;;;;;;4996029;28;94737;-65
2023/05/12 01:44:03;;;;;;;6.93;4.90;;;;;;;;;;5010676;28;94130;-66
2023/05/12 01:46:30;;;;;;;6.10;4.93;;;;;;;;;;5013947;28;92902;-66
2023/05/12 01:48:56;;;;;;;7.47;5.15;;;;;;;;;;5002204;28;92911;-66
2023/05/12 01:51:22;;;;;;;5.43;4.78;;;;;;;;;;5013337;28;92905;-66
2023/05/12 01:53:49;;;;;;;5.75;5.07;;;;;;;;;;5012689;28;95818;-66
2023/05/12 01:56:15;;;;;;;7.65;5.18;;;;;;;;;;5013552;28;93759;-66
2023/05/12 01:58:41;;;;;;;5.30;4.32;;;;;;;;;;4996380;28;94041;-66
2023/05/12 02:01:08;;;;;;;6.60;5.43;;;;;;;;;;4998772;28;93488;-66
2023/05/12 02:03:34;;;;;;;5.80;4.95;;;;;;;;;;5012268;28;92571;-66
2023/05/12 02:06:00;;;;;;;8.70;4.78;;;;;;;;;;5009258;28;93218;-65
2023/05/12 02:08:27;;;;;;;6.35;5.25;;;;;;;;;;5011944;28;93293;-66
2023/05/12 02:11:05;;;;;;;5.10;4.30;;;;;;;;;;4998567;28;94089;-66
2023/05/12 02:13:33;;;;;;;5.25;4.03;;;;;;;;;;5006091;28;93512;-66
2023/05/12 02:15:59;;;;;;;4.93;4.43;;;;;;;;;;5013592;28;92460;-66
2023/05/12 02:18:26;;;;;;;4.97;4.07;;;;;;;;;;5012474;28;95130;-66
2023/05/12 02:20:52;;;;;;;5.05;4.18;;;;;;;;;;5007168;28;93364;-66
2023/05/12 02:23:18;;;;;;;4.53;4.13;;;;;;;;;;5019264;28;92478;-66
2023/05/12 02:25:45;;;;;;;3.53;3.20;;;;;;;;;;4998355;28;92414;-66
2023/05/12 02:28:11;;;;;;;5.53;4.00;;;;;;;;;;4994312;28;94404;-66
2023/05/12 02:30:38;;;;;;;3.80;3.42;;;;;;;;;;5005270;28;92641;-66
2023/05/12 02:33:04;;;;;;;4.13;3.38;;;;;;;;;;4998349;28;93561;-66
2023/05/12 02:35:31;;;;;;;6.43;3.72;;;;;;;;;;5013773;28;91859;-66
2023/05/12 02:37:57;;;;;;;3.75;3.22;;;;;;;;;;5005428;28;93763;-66
2023/05/12 02:40:23;;;;;;;7.18;3.38;;;;;;;;;;5001726;28;94329;-66
2023/05/12 02:42:50;;;;;;;4.75;3.80;;;;;;;;;;5016034;27;94819;-66
2023/05/12 02:45:16;;;;;;;4.65;4.18;;;;;;;;;;5014340;28;96722;-66
2023/05/12 02:47:42;;;;;;;6.05;3.83;;;;;;;;;;5009311;28;93510;-66
2023/05/12 02:50:09;;;;;;;4.13;3.55;;;;;;;;;;5003235;28;92544;-66
2023/05/12 02:52:35;;;;;;;4.75;3.65;;;;;;;;;;4998703;28;93190;-66
2023/05/12 02:55:02;;;;;;;5.30;4.07;;;;;;;;;;5009801;28;94247;-66
2023/05/12 02:57:32;;;;;;;5.75;4.40;;;;;;;;;;5006943;28;94217;-66
2023/05/12 02:59:59;;;;;;;8.23;5.10;;;;;;;;;;4994874;28;92639;-66
2023/05/12 03:02:26;;;;;;;6.80;5.00;;;;;;;;;;5016957;28;92835;-66
2023/05/12 03:04:52;;;;;;;8.13;4.88;;;;;;;;;;5018217;27;93084;-66
2023/05/12 03:07:19;;;;;;;28.77;6.40;;;;;;;;;;5009343;28;94963;-66
2023/05/12 03:09:45;;;;;;;10.27;5.88;;;;;;;;;;4997749;28;92444;-66
2023/05/12 03:12:11;;;;;;;8.38;5.30;;;;;;;;;;5010359;28;93183;-66
2023/05/12 03:14:37;;;;;;;8.65;5.75;;;;;;;;;;5014429;28;92447;-66
2023/05/12 03:17:04;;;;;;;12.65;7.05;;;;;;;;;;5004384;28;94398;-66
2023/05/12 03:19:30;;;;;;;8.55;6.15;;;;;;;;;;5014017;28;93244;-66
2023/05/12 03:21:56;;;;;;;8.80;6.45;;;;;;;;;;5013524;28;92758;-66
2023/05/12 03:24:23;;;;;;;13.82;7.35;;;;;;;;;;5014851;28;94127;-66
2023/05/12 03:26:49;;;;;;;14.20;7.57;;;;;;;;;;5013642;28;93448;-66
2023/05/12 03:29:15;;;;;;;12.75;7.88;;;;;;;;;;5014148;28;92489;-66
2023/05/12 03:31:42;;;;;;;18.55;8.80;;;;;;;;;;5012677;28;94870;-66
2023/05/12 03:34:08;;;;;;;14.93;9.27;;;;;;;;;;5016147;28;93430;-66
2023/05/12 03:36:35;;;;;;;14.70;8.82;;;;;;;;;;5014196;28;93179;-66
2023/05/12 03:39:02;;;;;;;15.85;9.40;;;;;;;;;;5006350;28;93413;-66
2023/05/12 03:41:28;;;;;;;16.17;9.55;;;;;;;;;;5004689;28;92465;-66
2023/05/12 03:43:55;;;;;;;15.80;9.52;;;;;;;;;;5018111;28;93111;-66
2023/05/12 03:46:21;;;;;;;21.85;11.05;;;;;;;;;;5013027;28;93494;-66
2023/05/12 03:48:48;;;;;;;19.55;10.55;;;;;;;;;;4999361;28;91771;-65
2023/05/12 03:51:14;;;;;;;25.13;12.05;;;;;;;;;;5008834;28;92602;-65
2023/05/12 03:53:44;;;;;;;21.88;12.35;;;;;;;;;;5011340;28;97370;-66
2023/05/12 03:56:10;;;;;;;22.30;11.50;;;;;;;;;;5014374;28;94883;-67
2023/05/12 03:58:37;;;;;;;20.35;11.63;;;;;;;;;;5015798;28;93912;-67
2023/05/12 04:01:03;;;;;;;29.05;13.23;;;;;;;;;;5011204;28;92444;-67
2023/05/12 04:03:30;;;;;;;29.45;13.13;;;;;;;;;;5015500;28;93393;-66
2023/05/12 04:05:59;;;;;;;30.92;14.27;;;;;;;;;;5011060;28;93408;-66
2023/05/12 04:08:26;;;;;;;24.27;13.17;;;;;;;;;;5012750;28;92548;-66
2023/05/12 04:10:57;;;;;;;29.30;13.45;;;;;;;;;;5000013;28;93258;-66
2023/05/12 04:13:24;;;;;;;29.80;13.52;;;;;;;;;;5015059;28;92709;-67
2023/05/12 04:15:53;;;;;;;28.17;13.45;;;;;;;;;;5005520;28;93339;-67
2023/05/12 04:18:20;;;;;;;27.20;14.18;;;;;;;;;;5001629;28;93564;-67
2023/05/12 04:20:46;;;;;;;32.40;15.63;;;;;;;;;;5013400;27;95268;-67
2023/05/12 04:23:14;;;;;;;34.30;15.38;;;;;;;;;;5012794;28;95778;-67
2023/05/12 04:25:41;;;;;;;32.63;15.10;;;;;;;;;;5014983;28;94529;-67
2023/05/12 04:28:07;;;;;;;30.70;15.00;;;;;;;;;;5014174;28;92727;-65
2023/05/12 04:30:40;;;;;;;30.47;15.83;;;;;;;;;;5008192;28;93599;-66
2023/05/12 04:33:10;;;;;;;31.73;15.85;;;;;;;;;;5007765;28;93079;-66
2023/05/12 04:35:36;;;;;;;32.20;16.42;;;;;;;;;;4996646;28;92584;-65
2023/05/12 04:38:03;;;;;;;32.78;16.65;;;;;;;;;;5015481;28;93318;-65
2023/05/12 04:40:29;;;;;;;34.90;17.02;;;;;;;;;;5010243;28;94571;-66
2023/05/12 04:42:59;;;;;;;34.17;16.63;;;;;;;;;;5004738;28;93259;-66
2023/05/12 04:45:25;;;;;;;39.90;18.10;;;;;;;;;;5007747;28;95966;-66
2023/05/12 04:47:52;;;;;;;36.97;17.75;;;;;;;;;;4999084;28;92495;-66
2023/05/12 04:50:18;;;;;;;37.67;17.70;;;;;;;;;;5013204;28;93258;-66
2023/05/12 04:52:44;;;;;;;33.53;18.15;;;;;;;;;;5003612;28;93387;-65
2023/05/12 04:55:11;;;;;;;34.80;17.88;;;;;;;;;;4998370;28;93384;-65
2023/05/12 04:57:40;;;;;;;42.63;20.33;;;;;;;;;;5000806;28;93252;-66
2023/05/12 05:00:06;;;;;;;39.05;18.65;;;;;;;;;;5016681;28;93688;-65
2023/05/12 05:02:33;;;;;;;44.95;19.75;;;;;;;;;;5011199;28;92643;-66
2023/05/12 05:04:59;;;;;;;42.60;19.55;;;;;;;;;;5010846;28;92559;-65
2023/05/12 05:07:25;;;;;;;41.08;20.05;;;;;;;;;;5002787;28;92521;-66
2023/05/12 05:09:52;;;;;;;44.40;21.83;;;;;;;;;;5010725;27;96403;-66
2023/05/12 05:12:18;;;;;;;37.25;20.33;;;;;;;;;;5026439;28;92826;-66
2023/05/12 05:14:45;;;;;;;43.95;22.05;;;;;;;;;;5016059;28;92479;-66
2023/05/12 05:17:11;;;;;;;37.85;20.77;;;;;;;;;;5007658;28;94195;-66
2023/05/12 05:19:38;;;;;;;44.35;22.05;;;;;;;;;;4995358;28;93404;-66
2023/05/12 05:22:23;;;;;;;45.35;20.83;;;;;;;;;;5015447;28;92511;-66
2023/05/12 05:24:49;;;;;;;44.05;22.63;;;;;;;;;;5008651;28;93536;-66
2023/05/12 05:27:16;;;;;;;39.45;21.00;;;;;;;;;;4999592;28;91874;-66
2023/05/12 05:29:42;;;;;;;41.50;22.15;;;;;;;;;;4998769;28;92503;-65
2023/05/12 05:32:08;;;;;;;42.65;22.77;;;;;;;;;;5006188;28;93421;-66
2023/05/12 05:34:35;;;;;;;42.88;22.80;;;;;;;;;;5012755;28;95604;-65
2023/05/12 05:37:01;;;;;;;51.47;23.23;;;;;;;;;;5022359;28;96640;-66
2023/05/12 05:39:29;;;;;;;56.03;23.35;;;;;;;;;;4999519;28;93759;-66
2023/05/12 05:41:56;;;;;;;44.15;23.35;;;;;;;;;;5011451;28;92525;-66
2023/05/12 05:44:23;;;;;;;44.70;23.80;;;;;;;;;;5018877;28;93620;-66
2023/05/12 05:46:50;;;;;;;45.17;22.02;;;;;;;;;;5003980;28;94292;-66
2023/05/12 05:49:16;;;;;;;44.00;24.10;;;;;;;;;;5000180;28;93823;-66
2023/05/12 05:51:42;;;;;;;45.22;22.75;;;;;;;;;;5013643;28;93805;-66
2023/05/12 05:54:09;;;;;;;46.38;23.55;;;;;;;;;;5002779;28;92985;-65
2023/05/12 05:56:35;;;;;;;48.63;23.25;;;;;;;;;;5012076;28;94250;-67
2023/05/12 05:59:03;;;;;;;47.38;24.48;;;;;;;;;;5026920;27;95793;-66
2023/05/12 06:01:30;;;;;;;46.33;23.95;;;;;;;;;;5002366;28;94359;-67
2023/05/12 06:03:56;;;;;;;43.35;23.40;;;;;;;;;;4995939;28;93315;-66
2023/05/12 06:06:23;;;;;;;54.10;24.77;;;;;;;;;;5002651;28;93418;-67
2023/05/12 06:08:49;;;;;;;49.13;25.67;;;;;;;;;;4997295;28;93292;-66
2023/05/12 06:11:15;;;;;;;47.97;24.63;;;;;;;;;;5008123;28;93432;-65
2023/05/12 06:13:43;;;;;;;51.90;25.10;;;;;;;;;;5012084;28;92511;-67
2023/05/12 06:16:09;;;;;;;48.92;25.25;;;;;;;;;;5012793;28;94591;-66
2023/05/12 06:18:36;;;;;;;44.97;23.58;;;;;;;;;;5013136;28;94417;-66
2023/05/12 06:21:04;;;;;;;45.67;24.30;;;;;;;;;;4994270;28;92433;-66
2023/05/12 06:23:30;;;;;;;49.30;24.08;;;;;;;;;;5005756;28;94871;-67
2023/05/12 06:25:57;;;;;;;49.00;23.83;;;;;;;;;;5012774;28;94074;-66
2023/05/12 06:28:23;;;;;;;43.40;23.00;;;;;;;;;;5000344;28;92434;-66
2023/05/12 06:30:49;;;;;;;45.30;24.50;;;;;;;;;;4993819;28;93436;-66
2023/05/12 06:33:15;;;;;;;47.90;23.90;;;;;;;;;;4993549;28;92464;-67
2023/05/12 06:35:42;;;;;;;45.40;23.98;;;;;;;;;;5004310;28;93368;-66
2023/05/12 06:38:08;;;;;;;43.38;23.50;;;;;;;;;;5000847;28;94475;-66
2023/05/12 06:40:34;;;;;;;47.22;24.50;;;;;;;;;;5005332;28;91709;-66
2023/05/12 06:43:01;;;;;;;45.20;24.02;;;;;;;;;;5000975;27;92592;-66
2023/05/12 06:45:27;;;;;;;43.50;23.00;;;;;;;;;;5006169;28;93994;-66
2023/05/12 06:47:54;;;;;;;48.22;24.35;;;;;;;;;;5005555;28;96314;-66
2023/05/12 06:50:20;;;;;;;45.80;24.80;;;;;;;;;;5036439;27;94388;-66
2023/05/12 06:52:47;;;;;;;43.65;23.67;;;;;;;;;;5031203;27;92446;-66
2023/05/12 06:55:18;;;;;;;44.13;24.58;;;;;;;;;;5012270;28;93204;-66
2023/05/12 06:57:45;;;;;;;44.83;23.85;;;;;;;;;;5007126;28;94223;-66
2023/05/12 07:00:11;;;;;;;41.13;24.83;;;;;;;;;;5020363;28;93204;-66
2023/05/12 07:02:38;;;;;;;44.88;23.90;;;;;;;;;;5014551;27;93266;-66
2023/05/12 07:05:05;;;;;;;46.40;23.52;;;;;;;;;;5014015;28;92728;-65
2023/05/12 07:07:31;;;;;;;41.85;24.30;;;;;;;;;;5009048;28;93785;-66
2023/05/12 07:09:57;;;;;;;45.08;24.02;;;;;;;;;;4996794;28;94116;-66
2023/05/12 07:12:23;;;;;;;44.92;24.10;;;;;;;;;;4992300;28;94886;-65
2023/05/12 07:14:50;;;;;;;41.90;23.38;;;;;;;;;;5013473;28;95659;-66
2023/05/12 07:17:16;;;;;;;41.55;24.42;;;;;;;;;;5001718;28;95425;-65
2023/05/12 07:19:42;;;;;;;42.45;24.38;;;;;;;;;;4992605;28;92529;-66
2023/05/12 07:22:09;;;;;;;42.28;23.77;;;;;;;;;;4995090;28;93354;-66
2023/05/12 07:24:37;;;;;;;43.55;25.02;;;;;;;;;;5008145;28;93875;-65
2023/05/12 07:27:03;;;;;;;40.13;23.77;;;;;;;;;;4993311;28;92522;-66
2023/05/12 07:29:30;;;;;;;38.40;22.52;;;;;;;;;;4996379;28;92867;-66
2023/05/12 07:31:56;;;;;;;36.22;22.85;;;;;;;;;;5016196;28;93494;-66
2023/05/12 07:34:22;;;;;;;40.30;22.60;;;;;;;;;;5012079;28;94304;-66
2023/05/12 07:36:48;;;;;;;39.33;22.35;;;;;;;;;;5006171;28;95796;-66
2023/05/12 07:39:18;;;;;;;38.25;22.02;;;;;;;;;;5012363;27;92380;-66
2023/05/12 07:41:44;;;;;;;39.40;21.70;;;;;;;;;;4995226;28;93430;-65
2023/05/12 07:44:11;;;;;;;34.85;22.02;;;;;;;;;;5001190;28;93451;-65
2023/05/12 07:46:37;;;;;;;37.10;21.88;;;;;;;;;;5010426;28;94067;-65
2023/05/12 07:49:04;;;;;;;34.80;20.73;;;;;;;;;;4999112;28;94467;-65
2023/05/12 07:51:30;;;;;;;41.05;20.67;;;;;;;;;;5012156;28;93478;-65
2023/05/12 07:53:56;;;;;;;32.03;19.98;;;;;;;;;;5015360;28;91757;-66
2023/05/12 07:56:23;;;;;;;30.25;18.95;;;;;;;;;;5011314;28;93408;-66
2023/05/12 07:58:50;;;;;;;25.17;17.15;;;;;;;;;;4996470;28;92519;-66
2023/05/12 08:01:16;;;;;;;30.50;18.20;;;;;;;;;;5005082;28;94831;-66
2023/05/12 08:03:42;;;;;;;25.85;17.27;;;;;;;;;;5011060;28;94592;-67
2023/05/12 08:06:09;;;;;;;26.88;17.58;;;;;;;;;;4999063;28;92660;-66
2023/05/12 08:08:35;;;;;;;37.13;17.10;;;;;;;;;;5007829;28;93167;-66
2023/05/12 08:11:02;;;;;;;26.88;16.35;;;;;;;;;;5012330;28;92497;-66
2023/05/12 08:13:28;;;;;;;23.25;16.00;;;;;;;;;;5012651;28;92484;-66
2023/05/12 08:15:54;;;;;;;25.83;15.25;;;;;;;;;;5009350;28;93225;-66
2023/05/12 08:18:21;;;;;;;26.77;16.30;;;;;;;;;;5009278;28;91801;-66
2023/05/12 08:20:48;;;;;;;23.40;15.80;;;;;;;;;;5007530;28;93014;-66
2023/05/12 08:23:15;;;;;;;22.00;15.05;;;;;;;;;;5012145;28;93348;-66
2023/05/12 08:25:43;;;;;;;20.15;15.07;;;;;;;;;;5001596;28;95264;-66
2023/05/12 08:28:10;;;;;;;25.08;15.18;;;;;;;;;;5001574;28;95262;-66
2023/05/12 08:30:36;;;;;;;21.75;15.63;;;;;;;;;;5003832;28;94469;-66
2023/05/12 08:33:03;;;;;;;22.88;13.98;;;;;;;;;;4995911;28;92606;-66
2023/05/12 08:35:29;;;;;;;17.15;13.18;;;;;;;;;;5020486;28;93386;-66
2023/05/12 08:37:56;;;;;;;19.30;13.05;;;;;;;;;;5002230;28;93732;-66
2023/05/12 08:40:23;;;;;;;20.40;12.73;;;;;;;;;;5006364;28;94608;-66
2023/05/12 08:42:54;;;;;;;20.80;13.45;;;;;;;;;;5006060;28;92932;-67
2023/05/12 08:45:24;;;;;;;19.50;13.20;;;;;;;;;;5015426;28;92836;-67
2023/05/12 08:47:52;;;;;;;18.80;14.13;;;;;;;;;;5013666;28;93548;-67
2023/05/12 08:50:20;;;;;;;18.30;13.43;;;;;;;;;;4996731;28;96043;-66
2023/05/12 08:52:47;;;;;;;17.75;13.32;;;;;;;;;;5007797;28;92685;-66
2023/05/12 08:55:14;;;;;;;17.88;12.77;;;;;;;;;;5011703;28;93215;-66
2023/05/12 08:57:44;;;;;;;18.42;12.43;;;;;;;;;;5008289;28;93269;-66
2023/05/12 09:00:11;;;;;;;20.13;11.75;;;;;;;;;;5004560;28;92996;-66
2023/05/12 09:02:39;;;;;;;17.63;12.35;;;;;;;;;;4997561;28;93305;-66
2023/05/12 09:05:18;;;;;;;17.83;12.50;;;;;;;;;;4995776;28;92522;-66
2023/05/12 09:07:47;;;;;;;21.55;11.52;;;;;;;;;;5005722;28;93456;-66
2023/05/12 09:10:16;;;;;;;25.17;12.93;;;;;;;;;;5003202;28;94478;-67
2023/05/12 09:13:13;;;;;;;13.57;10.77;;;;;;;;;;5013801;28;92430;-67
2023/05/12 09:15:39;;;;;;;;;;;;;;;;;;5014443;28;94853;-64
2023/05/12 09:18:06;;;;;;;14.52;10.00;;;;;;;;;;5008004;28;124669;-67
2023/05/12 09:20:32;;;;;;;13.18;10.02;;;;;;;;;;5005490;28;93360;-66
2023/05/12 09:23:09;;;;;;;11.75;9.57;;;;;;;;;;4996580;28;93251;-67
2023/05/12 09:25:36;;;;;;;11.50;8.85;;;;;;;;;;4995471;28;92491;-67
2023/05/12 09:28:02;;;;;;;13.25;8.93;;;;;;;;;;5005889;28;93075;-66
2023/05/12 09:30:30;;;;;;;13.90;9.13;;;;;;;;;;5015341;28;93590;-67
2023/05/12 09:33:06;;;;;;;13.35;9.52;;;;;;;;;;5000679;28;91774;-67
2023/05/12 09:35:40;;;;;;;11.60;8.52;;;;;;;;;;4996239;28;92539;-66
2023/05/12 09:38:11;;;;;;;10.45;9.00;;;;;;;;;;5007221;28;93405;-67
2023/05/12 09:40:37;;;;;;;10.63;8.60;;;;;;;;;;5011859;28;95093;-66
2023/05/12 09:43:04;;;;;;;11.77;7.43;;;;;;;;;;4997203;28;95499;-67
2023/05/12 09:45:34;;;;;;;10.07;7.57;;;;;;;;;;5004516;28;92513;-68
2023/05/12 09:48:09;;;;;;;10.70;7.35;;;;;;;;;;5016625;28;93301;-70
2023/05/12 09:50:46;;;;;;;9.95;6.78;;;;;;;;;;4997479;28;93650;-67
2023/05/12 09:53:16;;;;;;;9.35;5.70;;;;;;;;;;5013115;28;92589;-67
2023/05/12 09:55:43;;;;;;;6.47;5.75;;;;;;;;;;5015821;28;92929;-68
2023/05/12 09:58:09;;;;;;;6.72;6.13;;;;;;;;;;4998996;28;92790;-68
2023/05/12 10:00:38;;;;;;;6.85;6.15;;;;;;;;;;4999777;28;92515;-68
2023/05/12 10:03:25;;;;;;;10.93;6.97;;;;;;;;;;5011975;28;95724;-67
2023/05/12 10:05:57;;;;;;;8.25;6.63;;;;;;;;;;4995326;28;95796;-67
2023/05/12 10:08:26;;;;;;;9.27;6.70;;;;;;;;;;5014060;28;95698;-68
2023/05/12 10:10:55;;;;;;;8.88;6.85;;;;;;;;;;5007812;28;93443;-70
2023/05/12 10:13:21;;;;;;;8.98;7.10;;;;;;;;;;5019498;27;93090;-68
2023/05/12 10:15:48;;;;;;;9.27;6.65;;;;;;;;;;4997556;28;93222;-68
2023/05/12 10:18:16;;;;;;;6.60;5.90;;;;;;;;;;5010008;28;93125;-67
2023/05/12 10:20:43;;;;;;;10.13;6.05;;;;;;;;;;4995635;28;92498;-67
2023/05/12 10:23:11;;;;;;;6.80;5.47;;;;;;;;;;5005578;28;94464;-67
2023/05/12 10:25:39;;;;;;;9.32;6.13;;;;;;;;;;5006616;28;93382;-67
2023/05/12 10:28:06;;;;;;;6.88;5.43;;;;;;;;;;5017415;28;92495;-67
2023/05/12 10:30:33;;;;;;;4.78;4.38;;;;;;;;;;4996423;28;96000;-67
2023/05/12 10:33:01;;;;;;;10.77;5.13;;;;;;;;;;4995244;28;92609;-67
2023/05/12 10:35:32;;;;;;;5.50;4.10;;;;;;;;;;4995215;28;93130;-66
2023/05/12 10:38:08;;;;;;;7.15;3.80;;;;;;;;;;5013402;28;94596;-67
2023/05/12 10:40:35;;;;;;;4.05;3.25;;;;;;;;;;5000561;28;92464;-67
2023/05/12 10:43:01;;;;;;;3.35;2.90;;;;;;;;;;4994910;28;92908;-66
2023/05/12 10:45:33;;;;;;;7.18;3.00;;;;;;;;;;5013861;28;94961;-66
2023/05/12 10:48:06;;;;;;;6.10;4.53;;;;;;;;;;5008444;28;91707;-65
2023/05/12 10:50:32;;;;;;;5.22;4.68;;;;;;;;;;5003659;28;93427;-66
2023/05/12 10:52:59;;;;;;;5.47;4.10;;;;;;;;;;5005331;28;92565;-66
2023/05/12 10:55:32;;;;;;;6.55;4.50;;;;;;;;;;5006590;28;95255;-66
2023/05/12 10:58:09;;;;;;;2.92;2.28;;;;;;;;;;5005236;28;94417;-66
2023/05/12 11:00:43;;;;;;;3.65;2.75;;;;;;;;;;4994664;28;92514;-66
2023/05/12 11:03:14;;;;;;;3.10;2.80;;;;;;;;;;5011929;28;93106;-66
2023/05/12 11:05:43;;;;;;;6.20;2.60;;;;;;;;;;4999374;28;94240;-65
2023/05/12 11:08:10;;;;;;;6.63;3.17;;;;;;;;;;5015157;28;92435;-68
2023/05/12 11:10:39;;;;;;;2.55;2.35;;;;;;;;;;5015237;28;92866;-66
2023/05/12 11:13:06;;;;;;;4.63;2.20;;;;;;;;;;5010528;28;93717;-65
2023/05/12 11:15:32;;;;;;;2.75;2.13;;;;;;;;;;5015515;28;92445;-64
2023/05/12 11:18:01;;;;;;;7.50;2.55;;;;;;;;;;5015268;27;92489;-65
2023/05/12 11:20:27;;;;;;;4.90;2.72;;;;;;;;;;5012747;28;94835;-66
2023/05/12 11:22:56;;;;;;;3.78;2.08;;;;;;;;;;5005453;28;96569;-65
2023/05/12 11:25:24;;;;;;;5.82;1.95;;;;;;;;;;5002671;28;93371;-66
2023/05/12 11:27:51;;;;;;;6.88;2.70;;;;;;;;;;5009549;27;92608;-66
2023/05/12 11:30:18;;;;;;;3.88;2.85;;;;;;;;;;5009691;28;93480;-65
2023/05/12 11:32:44;;;;;;;3.80;2.70;;;;;;;;;;5018022;28;93529;-66
2023/05/12 11:35:12;;;;;;;2.72;2.53;;;;;;;;;;5014892;28;94189;-65
2023/05/12 11:37:39;;;;;;;4.88;2.88;;;;;;;;;;5003411;28;93607;-65
2023/05/12 11:40:15;;;;;;;3.35;2.90;;;;;;;;;;5000812;28;92519;-65
2023/05/12 11:42:47;;;;;;;5.90;2.70;;;;;;;;;;4999268;28;94340;-66
2023/05/12 11:45:22;;;;;;;4.78;2.10;;;;;;;;;;5029816;27;96090;-66
2023/05/12 11:47:49;;;;;;;2.20;2.00;;;;;;;;;;5014962;28;92801;-66
2023/05/12 11:50:20;;;;;;;6.55;2.38;;;;;;;;;;5013764;28;93790;-66
2023/05/12 11:52:46;;;;;;;3.13;2.47;;;;;;;;;;5006046;28;93590;-66
2023/05/12 11:55:18;;;;;;;2.60;2.40;;;;;;;;;;5001435;28;93890;-66
2023/05/12 11:57:53;;;;;;;3.05;2.00;;;;;;;;;;5002177;28;93406;-65
2023/05/12 12:00:25;;;;;;;6.38;2.25;;;;;;;;;;5013932;28;92476;-66
2023/05/12 12:02:51;;;;;;;4.00;2.20;;;;;;;;;;5002404;28;93242;-65
2023/05/12 12:05:20;;;;;;;3.65;2.22;;;;;;;;;;5014419;28;93512;-66
2023/05/12 12:07:47;;;;;;;7.63;2.25;;;;;;;;;;5031141;27;93376;-66
2023/05/12 12:10:14;;;;;;;3.75;2.42;;;;;;;;;;5009576;28;95065;-64
2023/05/12 12:12:41;;;;;;;3.50;2.50;;;;;;;;;;5003043;28;93718;-64
2023/05/12 12:15:08;;;;;;;4.35;2.67;;;;;;;;;;5003752;28;94256;-65
2023/05/12 12:17:34;;;;;;;4.70;2.72;;;;;;;;;;5011805;28;93233;-65
2023/05/12 12:20:01;;;;;;;6.28;2.53;;;;;;;;;;5009436;28;92535;-66
2023/05/12 12:22:32;;;;;;;2.70;2.45;;;;;;;;;;5008254;28;93201;-66
2023/05/12 12:24:59;;;;;;;4.28;2.70;;;;;;;;;;5009874;28;94459;-66
2023/05/12 12:27:26;;;;;;;4.05;2.40;;;;;;;;;;5006728;28;91768;-66
2023/05/12 12:29:52;;;;;;;2.47;1.90;;;;;;;;;;4999949;28;92488;-66
2023/05/12 12:32:18;;;;;;;5.28;2.50;;;;;;;;;;5005208;28;92525;-66
2023/05/12 12:34:45;;;;;;;4.03;2.58;;;;;;;;;;5005087;28;95787;-67
2023/05/12 12:37:11;;;;;;;4.03;2.47;;;;;;;;;;5003787;28;95164;-67
2023/05/12 12:39:38;;;;;;;9.48;2.50;;;;;;;;;;5019739;28;94471;-67
2023/05/12 12:42:04;;;;;;;7.88;2.80;;;;;;;;;;4998450;28;94153;-67
2023/05/12 12:44:31;;;;;;;4.13;2.88;;;;;;;;;;4996962;28;93450;-66
2023/05/12 12:46:57;;;;;;;3.55;2.38;;;;;;;;;;5010445;28;92456;-67
2023/05/12 12:49:23;;;;;;;2.40;2.20;;;;;;;;;;5011784;28;93209;-67
2023/05/12 12:51:50;;;;;;;2.78;2.50;;;;;;;;;;4996702;28;93055;-65
2023/05/12 12:54:16;;;;;;;4.32;2.72;;;;;;;;;;5001110;28;92687;-66
2023/05/12 12:56:43;;;;;;;5.20;3.03;;;;;;;;;;5006350;28;94117;-66
2023/05/12 12:59:10;;;;;;;10.23;2.65;;;;;;;;;;4995442;28;96017;-65
2023/05/12 13:01:37;;;;;;;3.33;2.83;;;;;;;;;;5003231;28;93224;-67
2023/05/12 13:04:03;;;;;;;6.28;2.55;;;;;;;;;;5007790;28;93463;-66
2023/05/12 13:06:30;;;;;;;7.18;2.50;;;;;;;;;;5003700;28;92608;-67
2023/05/12 13:08:56;;;;;;;2.53;2.00;;;;;;;;;;5007941;28;94627;-66
